createdAt,value
2018-10-17T00:01:02.806Z,98776.91
2018-10-17T00:03:30.605Z,98780.13
2018-10-17T00:05:58.309Z,98781.47
2018-10-17T00:08:25.528Z,98779.06
2018-10-17T00:10:53.503Z,98778.02
2018-10-17T00:13:21.216Z,98786.53
2018-10-17T00:15:49.005Z,98786.53
2018-10-17T00:18:16.857Z,98789.20
2018-10-17T00:20:44.761Z,98782.54
2018-10-17T00:23:12.611Z,98783.33
2018-10-17T00:25:40.509Z,98785.48
2018-10-17T00:28:08.373Z,98780.38
2018-10-17T00:30:36.069Z,98777.18
2018-10-17T00:33:03.334Z,98777.98
2018-10-17T00:35:31.070Z,98747.84
2018-10-17T00:37:58.882Z,98776.92
2018-10-17T00:40:26.719Z,98779.84
2018-10-17T00:42:55.101Z,98775.83
2018-10-17T00:45:22.881Z,98769.14
2018-10-17T00:47:50.825Z,98774.49
2018-10-17T00:50:18.625Z,98768.93
2018-10-17T00:52:46.474Z,98773.20
2018-10-17T00:55:13.884Z,98770.80
2018-10-17T00:57:41.697Z,98766.30
2018-10-17T01:00:09.582Z,98778.01
2018-10-17T01:02:37.450Z,98768.91
2018-10-17T01:05:05.236Z,98776.13
2018-10-17T01:07:32.986Z,98771.06
2018-10-17T01:10:01.425Z,98768.93
2018-10-17T01:12:29.170Z,98769.48
2018-10-17T01:14:56.907Z,98767.31
2018-10-17T01:17:24.721Z,98770.27
2018-10-17T01:19:53.177Z,98653.16
2018-10-17T01:22:20.833Z,98773.98
2018-10-17T01:24:48.738Z,98765.17
2018-10-17T01:27:16.585Z,98763.56
2018-10-17T01:29:44.409Z,98764.38
2018-10-17T01:32:12.179Z,98762.79
2018-10-17T01:34:39.985Z,98757.98
2018-10-17T01:37:07.811Z,98763.59
2018-10-17T01:39:35.709Z,98760.66
2018-10-17T01:42:04.301Z,98711.56
2018-10-17T01:44:32.023Z,98759.88
2018-10-17T01:47:00.004Z,98758.78
2018-10-17T01:49:27.753Z,98716.11
2018-10-17T01:51:55.577Z,98746.52
2018-10-17T01:54:23.302Z,98749.97
2018-10-17T01:56:50.602Z,98743.81
2018-10-17T01:59:18.509Z,98736.61
2018-10-17T02:01:46.301Z,98740.61
2018-10-17T02:04:13.984Z,98736.89
2018-10-17T02:06:41.773Z,98727.03
2018-10-17T02:09:09.661Z,98736.59
2018-10-17T02:11:38.218Z,98739.84
2018-10-17T02:14:06.005Z,98740.61
2018-10-17T02:16:33.910Z,98739.02
2018-10-17T02:19:01.740Z,98738.80
2018-10-17T02:21:29.665Z,98728.37
2018-10-17T02:23:57.384Z,98738.23
2018-10-17T02:26:25.314Z,98742.23
2018-10-17T02:28:53.070Z,98738.53
2018-10-17T02:31:20.505Z,98740.92
2018-10-17T02:33:48.521Z,98741.48
2018-10-17T02:36:16.195Z,98737.98
2018-10-17T02:38:44.205Z,98733.17
2018-10-17T02:41:12.056Z,98738.25
2018-10-17T02:43:40.191Z,98724.66
2018-10-17T02:46:08.026Z,98728.13
2018-10-17T02:48:35.800Z,98727.89
2018-10-17T02:51:03.625Z,98721.20
2018-10-17T02:53:31.682Z,98724.66
2018-10-17T02:55:59.557Z,98728.11
2018-10-17T02:58:27.577Z,98686.77
2018-10-17T03:00:55.540Z,98718.75
2018-10-17T03:03:22.746Z,98722.48
2018-10-17T03:05:50.578Z,98728.09
2018-10-17T03:08:18.534Z,98725.15
2018-10-17T03:10:45.821Z,98719.28
2018-10-17T03:13:13.983Z,98691.28
2018-10-17T03:15:41.666Z,98729.19
2018-10-17T03:18:09.519Z,98732.67
2018-10-17T03:20:37.539Z,98728.13
2018-10-17T03:23:05.932Z,98737.50
2018-10-17T03:25:34.214Z,98739.66
2018-10-17T03:28:02.276Z,98738.02
2018-10-17T03:30:30.218Z,98738.03
2018-10-17T03:32:57.946Z,98743.92
2018-10-17T03:35:25.842Z,98739.37
2018-10-17T03:37:53.705Z,98744.20
2018-10-17T03:40:21.554Z,98742.60
2018-10-17T03:42:49.359Z,98738.86
2018-10-17T03:45:17.041Z,98733.50
2018-10-17T03:47:45.058Z,98695.34
2018-10-17T03:50:13.164Z,98745.27
2018-10-17T03:52:41.022Z,98743.67
2018-10-17T03:55:09.008Z,98740.19
2018-10-17T03:58:25.197Z,98739.66
2018-10-17T04:00:52.977Z,98744.20
2018-10-17T04:03:20.309Z,98739.41
2018-10-17T04:05:48.042Z,98742.86
2018-10-17T04:08:15.297Z,98703.92
2018-10-17T04:10:43.010Z,98740.74
2018-10-17T04:13:10.762Z,98743.42
2018-10-17T04:15:38.605Z,98747.70
2018-10-17T04:18:06.470Z,98743.42
2018-10-17T04:20:34.269Z,98745.03
2018-10-17T04:23:01.944Z,98745.84
2018-10-17T04:25:29.893Z,98752.25
2018-10-17T04:27:57.687Z,98749.56
2018-10-17T04:30:25.857Z,98752.77
2018-10-17T04:32:53.855Z,98756.77
2018-10-17T04:35:21.806Z,98753.61
2018-10-17T04:37:50.506Z,98732.80
2018-10-17T04:40:18.303Z,98754.66
2018-10-17T04:42:46.540Z,98749.59
2018-10-17T04:45:14.305Z,98752.00
2018-10-17T04:47:42.103Z,98753.07
2018-10-17T04:50:10.997Z,98754.11
2018-10-17T04:52:39.013Z,98750.91
2018-10-17T04:55:08.024Z,98715.14
2018-10-17T04:57:35.699Z,98753.33
2018-10-17T05:00:05.178Z,98753.34
2018-10-17T05:02:33.049Z,98753.36
2018-10-17T05:05:00.911Z,98758.96
2018-10-17T05:07:28.208Z,98754.14
2018-10-17T05:09:55.942Z,98753.07
2018-10-17T05:12:23.701Z,98757.63
2018-10-17T05:14:51.599Z,98758.41
2018-10-17T05:17:19.538Z,98757.61
2018-10-17T05:19:47.453Z,98755.74
2018-10-17T05:22:15.188Z,98717.27
2018-10-17T05:24:42.972Z,98760.91
2018-10-17T05:27:10.886Z,98755.73
2018-10-17T05:29:38.980Z,98756.56
2018-10-17T05:32:06.497Z,98758.64
2018-10-17T05:34:34.382Z,98760.03
2018-10-17T05:37:02.396Z,98762.41
2018-10-17T05:39:30.581Z,98760.24
2018-10-17T05:41:58.572Z,98761.95
2018-10-17T05:44:25.821Z,98771.45
2018-10-17T05:46:53.949Z,98761.09
2018-10-17T05:49:21.859Z,98557.30
2018-10-17T05:51:49.909Z,98704.00
2018-10-17T05:54:17.981Z,98772.87
2018-10-17T05:56:46.529Z,98766.44
2018-10-17T05:59:14.331Z,98771.48
2018-10-17T06:01:42.051Z,98767.48
2018-10-17T06:04:09.662Z,98777.12
2018-10-17T06:06:37.389Z,98770.16
2018-10-17T06:09:08.055Z,98773.92
2018-10-17T06:11:35.398Z,98776.84
2018-10-17T06:14:03.054Z,98771.25
2018-10-17T06:16:30.930Z,98774.44
2018-10-17T06:18:58.692Z,98774.19
2018-10-17T06:21:26.570Z,98777.67
2018-10-17T06:24:44.919Z,98782.47
2018-10-17T06:27:12.794Z,98781.13
2018-10-17T06:29:40.853Z,98781.69
2018-10-17T06:32:08.184Z,98778.73
2018-10-17T06:34:36.059Z,98776.61
2018-10-17T06:37:03.706Z,98783.30
2018-10-17T06:39:31.539Z,98782.77
2018-10-17T06:41:59.222Z,98788.40
2018-10-17T06:44:26.989Z,98788.39
2018-10-17T06:46:54.418Z,98789.73
2018-10-17T06:50:08.329Z,98791.06
2018-10-17T06:54:31.890Z,98783.33
2018-10-17T06:56:59.678Z,98792.68
2018-10-17T06:59:27.433Z,98786.80
2018-10-17T07:01:55.321Z,98792.16
2018-10-17T07:04:23.557Z,98792.16
2018-10-17T07:06:51.479Z,98781.47
2018-10-17T07:09:19.282Z,98784.66
2018-10-17T07:11:47.197Z,98789.73
2018-10-17T07:14:15.418Z,98777.44
2018-10-17T07:16:43.201Z,98781.97
2018-10-17T07:19:10.989Z,98777.42
2018-10-17T07:21:39.410Z,98780.92
2018-10-17T07:24:07.219Z,98782.50
2018-10-17T07:26:35.063Z,98784.11
2018-10-17T07:29:02.960Z,98780.34
2018-10-17T07:31:30.874Z,98780.60
2018-10-17T07:33:58.687Z,98779.30
2018-10-17T07:36:26.477Z,98782.48
2018-10-17T07:38:54.564Z,98780.62
2018-10-17T07:41:22.599Z,98787.03
2018-10-17T07:43:50.804Z,98784.61
2018-10-17T07:46:18.604Z,98779.28
2018-10-17T07:48:46.556Z,98783.02
2018-10-17T07:51:14.325Z,98780.59
2018-10-17T07:53:42.489Z,98783.53
2018-10-17T07:56:10.222Z,98782.72
2018-10-17T07:58:38.207Z,98780.86
2018-10-17T08:01:05.973Z,98785.38
2018-10-17T08:03:33.866Z,98780.31
2018-10-17T08:06:01.810Z,98784.33
2018-10-17T08:08:29.602Z,98786.98
2018-10-17T08:10:57.469Z,98788.57
2018-10-17T08:13:25.519Z,98789.13
2018-10-17T08:15:53.597Z,98788.84
2018-10-17T08:18:21.538Z,98794.98
2018-10-17T08:20:49.224Z,98790.43
2018-10-17T08:23:17.142Z,98793.11
2018-10-17T08:25:45.012Z,98605.01
2018-10-17T08:28:12.894Z,98794.16
2018-10-17T08:30:40.191Z,98790.42
2018-10-17T08:33:08.004Z,98786.91
2018-10-17T08:35:35.443Z,98785.58
2018-10-17T08:38:03.242Z,98790.39
2018-10-17T08:40:31.005Z,98788.78
2018-10-17T08:42:58.416Z,98745.81
2018-10-17T08:45:26.189Z,98781.02
2018-10-17T08:47:54.003Z,98789.57
2018-10-17T08:50:21.425Z,98776.72
2018-10-17T08:52:49.193Z,98784.50
2018-10-17T08:55:16.961Z,98783.67
2018-10-17T08:57:44.265Z,98785.54
2018-10-17T09:00:11.908Z,98778.59
2018-10-17T09:02:39.710Z,98784.48
2018-10-17T09:05:07.566Z,98779.13
2018-10-17T09:07:35.266Z,98781.81
2018-10-17T09:10:02.977Z,98783.91
2018-10-17T09:12:30.322Z,98779.09
2018-10-17T09:14:58.026Z,98785.77
2018-10-17T09:17:25.847Z,98778.03
2018-10-17T09:19:53.865Z,98781.25
2018-10-17T09:22:22.117Z,98777.48
2018-10-17T09:24:49.678Z,98780.70
2018-10-17T09:27:17.874Z,98769.19
2018-10-17T09:29:45.648Z,98774.78
2018-10-17T09:32:13.594Z,98571.62
2018-10-17T09:34:41.643Z,98771.81
2018-10-17T09:37:09.329Z,98763.28
2018-10-17T09:39:36.573Z,98768.34
2018-10-17T09:42:04.355Z,98757.91
2018-10-17T09:44:32.053Z,98765.13
2018-10-17T09:46:59.893Z,98766.19
2018-10-17T09:49:27.741Z,98764.86
2018-10-17T09:51:55.605Z,98764.58
2018-10-17T09:54:23.602Z,98766.45
2018-10-17T09:56:50.861Z,98758.97
2018-10-17T09:59:18.981Z,98753.88
2018-10-17T10:01:50.042Z,98748.02
2018-10-17T10:04:17.528Z,98751.72
2018-10-17T10:06:45.460Z,98754.12
2018-10-17T10:09:13.210Z,98750.13
2018-10-17T10:11:41.025Z,98745.86
2018-10-17T10:14:08.403Z,98728.77
2018-10-17T10:16:36.399Z,98744.52
2018-10-17T10:19:05.492Z,98742.63
2018-10-17T10:21:33.237Z,98739.68
2018-10-17T10:24:01.305Z,98737.28
2018-10-17T10:26:29.502Z,98731.39
2018-10-17T10:28:57.413Z,98731.12
2018-10-17T10:31:25.692Z,98729.25
2018-10-17T10:33:53.636Z,98729.75
2018-10-17T10:36:21.883Z,98720.16
2018-10-17T10:38:49.674Z,98721.75
2018-10-17T10:41:17.764Z,98723.34
2018-10-17T10:46:27.213Z,98713.98
2018-10-17T10:48:55.354Z,98717.44
2018-10-17T10:51:23.390Z,98715.59
2018-10-17T10:53:51.210Z,98711.55
2018-10-17T10:56:18.854Z,98715.81
2018-10-17T10:58:46.712Z,98712.89
2018-10-17T11:01:14.454Z,98709.16
2018-10-17T11:03:42.185Z,98710.22
2018-10-17T11:06:10.057Z,98707.53
2018-10-17T11:08:37.454Z,98705.67
2018-10-17T11:11:05.656Z,98670.73
2018-10-17T11:13:33.591Z,98691.50
2018-10-17T11:16:01.630Z,98694.98
2018-10-17T11:18:29.667Z,98695.27
2018-10-17T11:20:57.532Z,98685.89
2018-10-17T11:23:25.224Z,98688.32
2018-10-17T11:25:53.024Z,98688.57
2018-10-17T11:28:20.453Z,98678.95
2018-10-17T11:30:48.201Z,98684.56
2018-10-17T11:33:16.566Z,98681.63
2018-10-17T11:35:44.732Z,98677.36
2018-10-17T11:38:12.609Z,98674.41
2018-10-17T11:40:40.853Z,98676.55
2018-10-17T11:43:08.792Z,98669.84
2018-10-17T11:45:36.800Z,98661.59
2018-10-17T11:48:04.584Z,98664.76
2018-10-17T11:50:32.994Z,98664.50
2018-10-17T11:53:00.733Z,98656.50
2018-10-17T11:55:28.607Z,98660.23
2018-10-17T11:57:56.480Z,98655.97
2018-10-17T12:00:24.337Z,98659.17
2018-10-17T12:02:52.105Z,98656.25
2018-10-17T12:05:20.126Z,98648.50
2018-10-17T12:07:47.769Z,98651.42
2018-10-17T12:10:15.601Z,98645.55
2018-10-17T12:12:43.565Z,98488.92
2018-10-17T12:15:15.362Z,98634.84
2018-10-17T12:17:43.075Z,98637.75
2018-10-17T12:20:12.821Z,98625.98
2018-10-17T12:22:41.411Z,98628.10
2018-10-17T12:25:09.983Z,98621.94
2018-10-17T12:27:38.417Z,98618.98
2018-10-17T12:30:10.430Z,98616.31
2018-10-17T12:32:38.290Z,98616.06
2018-10-17T12:35:06.488Z,98613.08
2018-10-17T12:37:35.420Z,98611.71
2018-10-17T12:40:03.488Z,98612.27
2018-10-17T12:42:31.418Z,98607.17
2018-10-17T12:44:59.244Z,98604.45
2018-10-17T12:47:26.503Z,98598.58
2018-10-17T12:49:54.466Z,98601.25
2018-10-17T12:52:22.380Z,98595.34
2018-10-17T12:54:50.317Z,98593.47
2018-10-17T12:57:18.402Z,98602.31
2018-10-17T12:59:46.137Z,98593.47
2018-10-17T13:02:13.941Z,98598.02
2018-10-17T13:04:41.746Z,98584.17
2018-10-17T13:07:09.257Z,98600.69
2018-10-17T13:09:37.095Z,98599.58
2018-10-17T13:12:06.056Z,98598.80
2018-10-17T13:14:33.958Z,98597.67
2018-10-17T13:17:01.856Z,98586.47
2018-10-17T13:19:29.658Z,98588.87
2018-10-17T13:21:57.572Z,98585.91
2018-10-17T13:24:25.493Z,98587.81
2018-10-17T13:26:52.674Z,98579.53
2018-10-17T13:29:20.457Z,98579.22
2018-10-17T13:31:48.183Z,98574.42
2018-10-17T13:34:16.261Z,98581.36
2018-10-17T13:36:43.978Z,98576.57
2018-10-17T13:39:12.722Z,98573.08
2018-10-17T13:41:40.592Z,98573.37
2018-10-17T13:44:08.968Z,98566.67
2018-10-17T13:46:37.006Z,98547.75
2018-10-17T13:49:04.453Z,98567.70
2018-10-17T13:51:32.065Z,98566.36
2018-10-17T13:53:59.929Z,98563.72
2018-10-17T13:56:27.969Z,98565.27
2018-10-17T13:58:55.769Z,98563.16
2018-10-17T14:01:24.181Z,98561.56
2018-10-17T14:03:51.830Z,98521.34
2018-10-17T14:06:20.124Z,98562.31
2018-10-17T14:08:48.018Z,98535.98
2018-10-17T14:11:15.971Z,98564.00
2018-10-17T14:13:43.693Z,98565.23
2018-10-17T14:16:11.597Z,98566.89
2018-10-17T14:18:39.848Z,98562.88
2018-10-17T14:21:07.370Z,98562.59
2018-10-17T14:23:35.083Z,98559.14
2018-10-17T14:26:03.042Z,98565.83
2018-10-17T14:28:30.308Z,98567.95
2018-10-17T14:30:58.049Z,98566.30
2018-10-17T14:33:25.766Z,98567.84
2018-10-17T14:35:53.645Z,98562.48
2018-10-17T14:38:21.585Z,98566.19
2018-10-17T14:40:49.352Z,98566.78
2018-10-17T14:43:17.380Z,98565.70
2018-10-17T14:45:45.396Z,98526.83
2018-10-17T14:48:13.235Z,98557.91
2018-10-17T14:50:40.929Z,98566.78
2018-10-17T14:53:08.930Z,98562.17
2018-10-17T14:55:36.792Z,98560.27
2018-10-17T14:58:04.751Z,98528.14
2018-10-17T15:00:32.599Z,98565.16
2018-10-17T15:03:00.514Z,98555.83
2018-10-17T15:05:28.822Z,98558.83
2018-10-17T15:07:56.759Z,98565.23
2018-10-17T15:10:24.636Z,98555.94
2018-10-17T15:12:52.493Z,98562.34
2018-10-17T15:15:20.303Z,98548.43
2018-10-17T15:17:48.034Z,98551.88
2018-10-17T15:20:16.480Z,98555.34
2018-10-17T15:22:44.749Z,98556.42
2018-10-17T15:25:12.594Z,98553.32
2018-10-17T15:27:40.567Z,98552.55
2018-10-17T15:30:08.596Z,98556.28
2018-10-17T15:32:37.006Z,98552.33
2018-10-17T15:35:06.066Z,98551.58
2018-10-17T15:37:33.933Z,98556.12
2018-10-17T15:40:01.649Z,98519.55
2018-10-17T15:42:28.897Z,98522.58
2018-10-17T15:44:56.761Z,98567.13
2018-10-17T15:47:24.777Z,98562.86
2018-10-17T15:49:52.598Z,98566.37
2018-10-17T15:52:20.416Z,98563.22
2018-10-17T15:54:48.431Z,98562.42
2018-10-17T15:57:16.370Z,98563.53
2018-10-17T15:59:44.061Z,98540.38
2018-10-17T16:02:11.934Z,98563.08
2018-10-17T16:04:39.684Z,98565.86
2018-10-17T16:07:07.576Z,98561.36
2018-10-17T16:09:35.312Z,98551.29
2018-10-17T16:12:03.068Z,98565.96
2018-10-17T16:14:30.860Z,98517.98
2018-10-17T16:16:58.714Z,98562.75
2018-10-17T16:19:26.562Z,98564.41
2018-10-17T16:21:54.457Z,98484.08
2018-10-17T16:24:22.643Z,98566.95
2018-10-17T16:26:50.497Z,98564.52
2018-10-17T16:29:18.301Z,98568.25
2018-10-17T16:31:46.025Z,98569.31
2018-10-17T16:34:13.919Z,98574.38
2018-10-17T16:36:41.742Z,98581.79
2018-10-17T16:39:11.001Z,98552.45
2018-10-17T16:41:38.914Z,98585.77
2018-10-17T16:44:07.390Z,98583.34
2018-10-17T16:46:34.713Z,98590.02
2018-10-17T16:49:02.714Z,98591.91
2018-10-17T16:51:31.013Z,98599.64
2018-10-17T16:53:58.795Z,98599.05
2018-10-17T16:56:26.893Z,98600.09
2018-10-17T16:58:54.762Z,98603.02
2018-10-17T17:01:22.630Z,98605.16
2018-10-17T17:03:50.432Z,98599.80
2018-10-17T17:06:18.384Z,98598.46
2018-10-17T17:08:46.323Z,98602.17
2018-10-17T17:11:14.304Z,98606.70
2018-10-17T17:13:41.987Z,98613.95
2018-10-17T17:16:09.844Z,98609.66
2018-10-17T17:18:37.580Z,98613.95
2018-10-17T17:21:05.593Z,98612.03
2018-10-17T17:23:33.440Z,98609.67
2018-10-17T17:26:01.337Z,98619.26
2018-10-17T17:28:29.197Z,98612.32
2018-10-17T17:30:56.297Z,98618.50
2018-10-17T17:33:24.059Z,98584.63
2018-10-17T17:35:51.887Z,98620.30
2018-10-17T17:38:19.695Z,98627.21
2018-10-17T17:40:47.637Z,98628.81
2018-10-17T17:43:15.297Z,98623.50
2018-10-17T17:45:43.190Z,98627.00
2018-10-17T17:48:10.965Z,98630.44
2018-10-17T17:50:38.681Z,98631.48
2018-10-17T17:53:06.434Z,98629.13
2018-10-17T17:55:34.296Z,98634.22
2018-10-17T17:58:02.078Z,98634.75
2018-10-17T18:00:29.857Z,98628.31
2018-10-17T18:02:57.732Z,98641.12
2018-10-17T18:05:25.584Z,98635.75
2018-10-17T18:07:53.546Z,98638.88
2018-10-17T18:10:21.652Z,98631.48
2018-10-17T18:12:49.735Z,98629.14
2018-10-17T18:15:17.682Z,98651.82
2018-10-17T18:17:45.579Z,98651.29
2018-10-17T18:20:13.824Z,98659.02
2018-10-17T18:22:41.889Z,98652.33
2018-10-17T18:25:09.683Z,98659.28
2018-10-17T18:27:38.100Z,98663.08
2018-10-17T18:30:06.303Z,98665.19
2018-10-17T18:32:34.058Z,98671.09
2018-10-17T18:35:02.097Z,98669.77
2018-10-17T18:37:30.050Z,98668.92
2018-10-17T18:39:58.391Z,98671.03
2018-10-17T18:42:25.575Z,98676.15
2018-10-17T18:44:53.373Z,98682.05
2018-10-17T18:47:21.184Z,98681.52
2018-10-17T18:49:49.022Z,98685.27
2018-10-17T18:53:32.533Z,98685.53
2018-10-17T18:56:00.591Z,98675.95
2018-10-17T19:00:52.934Z,98690.78
2018-10-17T19:03:20.405Z,98697.47
2018-10-17T19:05:48.188Z,98696.14
2018-10-17T19:08:16.064Z,98699.83
2018-10-17T19:13:21.466Z,98703.06
2018-10-17T19:15:49.195Z,98704.87
2018-10-17T19:18:16.939Z,98711.09
2018-10-17T19:20:45.013Z,98710.23
2018-10-17T19:23:12.304Z,98709.20
2018-10-17T19:25:40.040Z,98711.53
2018-10-17T19:28:08.018Z,98715.27
2018-10-17T19:30:35.301Z,98714.71
2018-10-17T19:33:03.074Z,98714.46
2018-10-17T19:35:30.928Z,98711.75
2018-10-17T19:37:58.758Z,98714.97
2018-10-17T19:40:26.728Z,98718.98
2018-10-17T19:42:54.581Z,98722.16
2018-10-17T19:45:22.506Z,98720.05
2018-10-17T19:47:50.389Z,98724.26
2018-10-17T19:50:18.028Z,98717.31
2018-10-17T19:52:45.828Z,98723.00
2018-10-17T19:55:13.724Z,98726.73
2018-10-17T19:57:41.911Z,98721.16
2018-10-17T20:00:12.706Z,98725.11
2018-10-17T20:02:41.006Z,98685.91
2018-10-17T20:05:08.997Z,98723.27
2018-10-17T20:07:37.530Z,98725.40
2018-10-17T20:10:05.513Z,98725.38
2018-10-17T20:12:33.485Z,98725.90
2018-10-17T20:15:00.756Z,98728.58
2018-10-17T20:17:28.649Z,98733.43
2018-10-17T20:19:56.478Z,98732.57
2018-10-17T20:22:24.394Z,98737.64
2018-10-17T20:24:52.335Z,98742.73
2018-10-17T20:27:19.579Z,98731.19
2018-10-17T20:29:47.461Z,98731.94
2018-10-17T20:32:15.194Z,98730.06
2018-10-17T20:34:43.174Z,98729.48
2018-10-17T20:37:11.043Z,98740.55
2018-10-17T20:39:38.845Z,98740.05
2018-10-17T20:42:06.722Z,98741.48
2018-10-17T20:44:34.582Z,98749.52
2018-10-17T20:47:02.405Z,98743.66
2018-10-17T20:51:08.473Z,98749.26
2018-10-17T20:53:36.198Z,98749.26
2018-10-17T20:56:04.113Z,98750.59
2018-10-17T20:58:32.162Z,98749.14
2018-10-17T21:01:00.002Z,98758.46
2018-10-17T21:03:27.914Z,98752.58
2018-10-17T21:05:55.305Z,98739.06
2018-10-17T21:08:22.998Z,98747.84
2018-10-17T21:10:50.191Z,98735.55
2018-10-17T21:13:17.929Z,98743.00
2018-10-17T21:15:45.670Z,98748.89
2018-10-17T21:18:13.596Z,98743.00
2018-10-17T21:20:41.310Z,98751.31
2018-10-17T21:23:09.005Z,98752.12
2018-10-17T21:25:36.495Z,98756.38
2018-10-17T21:28:04.578Z,98750.48
2018-10-17T21:30:32.385Z,98753.66
2018-10-17T21:33:00.865Z,98753.63
2018-10-17T21:35:28.713Z,98730.95
2018-10-17T21:38:00.063Z,98753.08
2018-10-17T21:40:27.796Z,98752.88
2018-10-17T21:42:55.585Z,98753.94
2018-10-17T21:45:23.310Z,98751.81
2018-10-17T21:47:51.030Z,98751.03
2018-10-17T21:50:18.943Z,98750.20
2018-10-17T21:52:46.731Z,98747.27
2018-10-17T21:55:14.581Z,98739.01
2018-10-17T21:57:42.823Z,98745.41
2018-10-17T22:00:11.178Z,98742.98
2018-10-17T22:02:39.378Z,98729.28
2018-10-17T22:05:08.518Z,98728.58
2018-10-17T22:07:36.761Z,98737.72
2018-10-17T22:10:05.761Z,98740.69
2018-10-17T22:12:33.658Z,98722.05
2018-10-17T22:15:01.482Z,98737.53
2018-10-17T22:17:30.001Z,98736.75
2018-10-17T22:19:58.217Z,98736.49
2018-10-17T22:22:26.986Z,98738.92
2018-10-17T22:24:55.013Z,98738.06
2018-10-17T22:27:23.462Z,98736.52
2018-10-17T22:31:46.891Z,98740.19
2018-10-17T22:34:15.066Z,98743.67
2018-10-17T22:37:56.257Z,98746.90
2018-10-17T22:40:24.802Z,98741.55
2018-10-17T22:42:52.869Z,98752.02
2018-10-17T22:45:20.674Z,98747.47
2018-10-17T22:47:47.921Z,98741.58
2018-10-17T22:50:15.750Z,98745.62
2018-10-17T22:52:43.469Z,98749.35
2018-10-17T22:57:18.179Z,98742.66
2018-10-17T22:59:45.983Z,98737.08
2018-10-17T23:02:13.806Z,98740.84
2018-10-17T23:04:41.613Z,98744.84
2018-10-17T23:07:09.598Z,98737.60
2018-10-17T23:09:36.953Z,98730.40
2018-10-17T23:12:05.309Z,98731.73
2018-10-17T23:14:33.035Z,98734.16
2018-10-17T23:17:01.032Z,98739.00
2018-10-17T23:19:28.931Z,98740.59
2018-10-17T23:21:56.770Z,98733.38
2018-10-17T23:24:24.633Z,98731.73
2018-10-17T23:26:52.482Z,98738.17
2018-10-17T23:29:20.215Z,98743.52
2018-10-17T23:31:48.076Z,98739.28
2018-10-17T23:34:16.043Z,98733.94
2018-10-17T23:36:43.958Z,98734.75
2018-10-17T23:39:11.970Z,98697.95
2018-10-17T23:41:40.224Z,98737.95
2018-10-17T23:44:08.122Z,98737.67
2018-10-17T23:46:36.079Z,98733.42
2018-10-17T23:49:04.607Z,98728.63
2018-10-17T23:51:32.509Z,98732.89
2018-10-17T23:54:00.428Z,98741.44
2018-10-17T23:56:28.195Z,98735.30
